createdAt,value
2018-07-15T00:00:36.919Z,19.31
2018-07-15T00:03:06.071Z,19.36
2018-07-15T00:05:40.537Z,19.40
2018-07-15T00:08:09.702Z,19.35
2018-07-15T00:10:47.202Z,19.34
2018-07-15T00:13:16.059Z,19.34
2018-07-15T00:15:45.706Z,19.37
2018-07-15T00:18:15.851Z,19.37
2018-07-15T00:20:44.930Z,19.35
2018-07-15T00:23:13.917Z,19.36
2018-07-15T00:25:43.137Z,19.27
2018-07-15T00:28:12.208Z,19.25
2018-07-15T00:30:41.008Z,19.29
2018-07-15T00:33:09.804Z,19.26
2018-07-15T00:35:55.068Z,19.24
2018-07-15T00:38:24.195Z,19.23
2018-07-15T00:40:53.508Z,19.23
2018-07-15T00:43:22.448Z,19.21
2018-07-15T00:45:51.571Z,19.18
2018-07-15T00:48:20.554Z,19.25
2018-07-15T00:50:50.066Z,19.19
2018-07-15T00:53:19.475Z,19.15
2018-07-15T00:55:48.766Z,19.11
2018-07-15T00:58:17.663Z,19.06
2018-07-15T01:00:52.029Z,19.06
2018-07-15T01:03:21.164Z,19.05
2018-07-15T01:05:49.952Z,19.06
2018-07-15T01:08:19.895Z,19.05
2018-07-15T01:10:49.095Z,19.01
2018-07-15T01:13:18.179Z,18.89
2018-07-15T01:15:47.412Z,18.87
2018-07-15T01:18:16.585Z,18.88
2018-07-15T01:20:45.471Z,18.85
2018-07-15T01:23:15.099Z,18.80
2018-07-15T01:25:54.112Z,18.86
2018-07-15T01:28:22.994Z,18.81
2018-07-15T01:30:52.064Z,18.71
2018-07-15T01:33:20.791Z,18.63
2018-07-15T01:35:50.011Z,18.63
2018-07-15T01:38:18.880Z,18.53
2018-07-15T01:40:47.872Z,18.44
2018-07-15T01:43:17.007Z,18.39
2018-07-15T01:45:46.647Z,18.37
2018-07-15T01:48:15.667Z,18.30
2018-07-15T01:50:45.733Z,18.30
2018-07-15T01:53:14.687Z,18.28
2018-07-15T01:55:43.439Z,18.31
2018-07-15T01:58:12.321Z,18.29
2018-07-15T02:00:41.131Z,18.27
2018-07-15T02:03:10.874Z,18.30
2018-07-15T02:05:39.982Z,18.28
2018-07-15T02:08:09.056Z,18.23
2018-07-15T02:10:38.557Z,18.19
2018-07-15T02:13:07.948Z,18.17
2018-07-15T02:15:36.734Z,18.11
2018-07-15T02:18:05.554Z,18.09
2018-07-15T02:20:34.872Z,18.04
2018-07-15T02:23:03.750Z,17.92
2018-07-15T02:25:33.226Z,17.85
2018-07-15T02:28:02.275Z,17.86
2018-07-15T02:30:31.130Z,17.77
2018-07-15T02:33:00.129Z,17.76
2018-07-15T02:35:29.256Z,17.77
2018-07-15T02:37:58.038Z,17.75
2018-07-15T02:40:27.502Z,17.77
2018-07-15T02:42:57.030Z,17.75
2018-07-15T02:45:26.507Z,17.70
2018-07-15T02:47:55.763Z,17.71
2018-07-15T02:50:24.759Z,17.65
2018-07-15T02:52:54.807Z,17.66
2018-07-15T02:55:24.035Z,17.70
2018-07-15T02:57:53.740Z,17.71
2018-07-15T03:00:23.066Z,17.79
2018-07-15T03:02:51.961Z,17.73
2018-07-15T03:05:21.398Z,17.72
2018-07-15T03:07:50.848Z,17.79
2018-07-15T03:10:20.651Z,17.76
2018-07-15T03:12:49.775Z,17.77
2018-07-15T03:15:18.641Z,17.79
2018-07-15T03:17:47.900Z,17.94
2018-07-15T03:20:17.319Z,18.29
2018-07-15T03:22:46.611Z,18.76
2018-07-15T03:25:15.468Z,19.26
2018-07-15T03:27:44.617Z,19.88
2018-07-15T03:30:14.280Z,20.50
2018-07-15T03:32:43.047Z,21.12
2018-07-15T03:35:12.075Z,21.71
2018-07-15T03:37:40.947Z,22.40
2018-07-15T03:40:09.951Z,22.97
2018-07-15T03:42:39.620Z,23.50
2018-07-15T03:45:08.564Z,24.17
2018-07-15T03:47:37.661Z,24.78
2018-07-15T03:50:07.375Z,25.58
2018-07-15T03:52:36.415Z,26.10
2018-07-15T03:55:05.384Z,26.68
2018-07-15T03:57:34.524Z,27.36
2018-07-15T04:00:03.427Z,27.73
2018-07-15T04:02:32.235Z,28.29
2018-07-15T04:05:01.652Z,28.41
2018-07-15T04:07:30.320Z,28.89
2018-07-15T04:09:59.103Z,29.31
2018-07-15T04:12:28.207Z,29.68
2018-07-15T04:14:57.613Z,29.97
2018-07-15T04:17:26.406Z,30.39
2018-07-15T04:19:55.623Z,30.59
2018-07-15T04:22:24.586Z,30.87
2018-07-15T04:24:53.671Z,31.39
2018-07-15T04:27:23.116Z,31.84
2018-07-15T04:29:51.986Z,31.87
2018-07-15T04:32:21.092Z,31.85
2018-07-15T04:34:50.707Z,32.37
2018-07-15T04:37:19.905Z,32.78
2018-07-15T04:39:48.775Z,32.64
2018-07-15T04:42:17.813Z,33.26
2018-07-15T04:44:46.881Z,33.52
2018-07-15T04:47:15.767Z,33.87
2018-07-15T04:49:45.191Z,34.31
2018-07-15T04:52:13.946Z,34.04
2018-07-15T04:54:42.555Z,33.86
2018-07-15T04:57:12.177Z,34.78
2018-07-15T04:59:41.445Z,34.60
2018-07-15T05:02:10.324Z,34.67
2018-07-15T05:04:39.078Z,35.00
2018-07-15T05:07:07.947Z,35.19
2018-07-15T05:09:37.308Z,35.25
2018-07-15T05:12:06.470Z,35.21
2018-07-15T05:14:35.429Z,35.49
2018-07-15T05:17:05.031Z,35.61
2018-07-15T05:19:34.366Z,35.32
2018-07-15T05:22:03.822Z,35.36
2018-07-15T05:24:32.954Z,35.76
2018-07-15T05:27:02.065Z,35.80
2018-07-15T05:29:31.031Z,36.33
2018-07-15T05:32:00.143Z,36.54
2018-07-15T05:34:29.152Z,35.85
2018-07-15T05:36:58.428Z,35.93
2018-07-15T05:39:27.313Z,35.40
2018-07-15T05:41:56.555Z,35.76
2018-07-15T05:44:25.499Z,35.90
2018-07-15T05:46:54.708Z,35.30
2018-07-15T05:49:23.727Z,35.31
2018-07-15T05:51:53.303Z,35.58
2018-07-15T05:54:23.030Z,35.21
2018-07-15T05:56:52.462Z,35.58
2018-07-15T05:59:21.319Z,35.20
2018-07-15T06:01:50.928Z,35.28
2018-07-15T06:04:20.251Z,34.91
2018-07-15T06:06:52.868Z,35.63
2018-07-15T06:09:22.290Z,35.12
2018-07-15T06:11:51.099Z,35.47
2018-07-15T06:14:19.793Z,35.15
2018-07-15T06:16:48.959Z,35.54
2018-07-15T06:19:18.566Z,35.37
2018-07-15T06:21:47.523Z,35.25
2018-07-15T06:24:16.716Z,35.92
2018-07-15T06:26:48.639Z,36.27
2018-07-15T06:29:18.573Z,35.68
2018-07-15T06:31:48.045Z,35.69
2018-07-15T06:34:17.173Z,36.22
2018-07-15T06:36:46.218Z,35.69
2018-07-15T06:39:15.171Z,35.49
2018-07-15T06:41:43.959Z,35.26
2018-07-15T06:44:13.388Z,35.70
2018-07-15T06:46:42.308Z,35.82
2018-07-15T06:49:11.380Z,36.62
2018-07-15T06:51:40.801Z,36.86
2018-07-15T06:54:09.840Z,35.61
2018-07-15T06:56:38.738Z,36.38
2018-07-15T06:59:07.950Z,35.68
2018-07-15T07:01:36.855Z,35.25
2018-07-15T07:04:05.982Z,34.71
2018-07-15T07:06:37.102Z,35.83
2018-07-15T07:09:07.208Z,36.03
2018-07-15T07:11:37.629Z,35.60
2018-07-15T07:14:07.313Z,35.11
2018-07-15T07:16:36.415Z,35.19
2018-07-15T07:19:05.348Z,36.20
2018-07-15T07:21:34.394Z,36.36
2018-07-15T07:24:03.292Z,35.72
2018-07-15T07:26:32.815Z,34.46
2018-07-15T07:29:01.715Z,34.76
2018-07-15T07:31:30.691Z,34.82
2018-07-15T07:33:59.924Z,34.59
2018-07-15T07:36:28.773Z,35.30
2018-07-15T07:38:57.763Z,35.93
2018-07-15T07:41:27.021Z,36.47
2018-07-15T07:43:56.054Z,36.42
2018-07-15T07:46:24.981Z,36.47
2018-07-15T07:48:54.155Z,36.36
2018-07-15T07:51:24.170Z,37.26
2018-07-15T07:53:52.972Z,37.24
2018-07-15T07:56:22.478Z,36.93
2018-07-15T07:58:51.666Z,36.55
2018-07-15T08:01:20.549Z,37.00
2018-07-15T08:03:49.892Z,36.52
2018-07-15T08:06:19.139Z,36.45
2018-07-15T08:08:47.945Z,36.49
2018-07-15T08:11:17.075Z,34.67
2018-07-15T08:13:45.973Z,33.80
2018-07-15T08:16:14.871Z,34.28
2018-07-15T08:18:44.197Z,35.43
2018-07-15T08:21:13.259Z,35.44
2018-07-15T08:23:42.456Z,35.65
2018-07-15T08:26:11.670Z,35.04
2018-07-15T08:28:40.776Z,34.40
2018-07-15T08:31:20.703Z,35.02
2018-07-15T08:33:49.534Z,35.42
2018-07-15T08:36:18.511Z,35.50
2018-07-15T08:38:47.539Z,35.64
2018-07-15T08:41:17.583Z,35.56
2018-07-15T08:43:46.424Z,35.70
2018-07-15T08:46:15.687Z,35.44
2018-07-15T08:48:44.374Z,34.81
2018-07-15T08:51:13.280Z,35.59
2018-07-15T08:53:42.373Z,35.60
2018-07-15T08:56:11.187Z,35.67
2018-07-15T08:58:40.160Z,34.92
2018-07-15T09:01:09.615Z,34.20
2018-07-15T09:03:38.286Z,34.60
2018-07-15T09:06:07.071Z,34.90
2018-07-15T09:08:36.385Z,34.89
2018-07-15T09:11:05.255Z,35.10
2018-07-15T09:13:34.334Z,34.84
2018-07-15T09:16:03.422Z,34.86
2018-07-15T09:18:33.131Z,34.15
2018-07-15T09:21:01.911Z,33.59
2018-07-15T09:23:31.594Z,33.62
2018-07-15T09:26:00.758Z,33.29
2018-07-15T09:28:29.649Z,32.32
2018-07-15T09:30:58.971Z,31.85
2018-07-15T09:33:27.947Z,31.14
2018-07-15T09:35:56.561Z,30.61
2018-07-15T09:38:25.939Z,30.19
2018-07-15T09:40:55.126Z,30.72
2018-07-15T09:43:24.650Z,30.99
2018-07-15T09:45:54.268Z,30.99
2018-07-15T09:48:23.308Z,31.38
2018-07-15T09:50:52.731Z,31.09
2018-07-15T09:53:22.092Z,31.43
2018-07-15T09:55:51.224Z,31.38
2018-07-15T09:58:20.107Z,31.28
2018-07-15T10:00:53.924Z,31.74
2018-07-15T10:03:23.731Z,31.41
2018-07-15T10:05:53.691Z,31.28
2018-07-15T10:08:23.448Z,31.05
2018-07-15T10:10:52.609Z,31.22
2018-07-15T10:13:21.495Z,31.18
2018-07-15T10:15:51.842Z,31.28
2018-07-15T10:18:20.663Z,31.04
2018-07-15T10:20:49.690Z,31.27
2018-07-15T10:23:18.811Z,30.52
2018-07-15T10:25:47.961Z,30.91
2018-07-15T10:28:16.887Z,31.38
2018-07-15T10:30:47.156Z,31.52
2018-07-15T10:33:16.254Z,31.20
2018-07-15T10:35:45.103Z,30.80
2018-07-15T10:38:13.993Z,30.51
2018-07-15T10:40:42.860Z,30.53
2018-07-15T10:43:12.191Z,30.73
2018-07-15T10:45:41.732Z,30.76
2018-07-15T10:48:10.858Z,30.38
2018-07-15T10:50:39.767Z,30.26
2018-07-15T10:53:09.139Z,30.72
2018-07-15T10:55:38.592Z,30.19
2018-07-15T10:58:07.492Z,30.05
2018-07-15T11:00:36.707Z,30.04
2018-07-15T11:03:05.574Z,30.08
2018-07-15T11:05:34.471Z,30.21
2018-07-15T11:08:03.295Z,30.13
2018-07-15T11:10:32.249Z,30.32
2018-07-15T11:13:01.459Z,30.63
2018-07-15T11:15:31.912Z,30.78
2018-07-15T11:18:00.980Z,30.65
2018-07-15T11:20:30.087Z,29.89
2018-07-15T11:22:59.315Z,29.03
2018-07-15T11:25:28.576Z,28.91
2018-07-15T11:27:57.859Z,28.73
2018-07-15T11:30:26.698Z,29.19
2018-07-15T11:32:55.531Z,29.61
2018-07-15T11:35:26.114Z,29.57
2018-07-15T11:37:55.699Z,29.83
2018-07-15T11:40:24.660Z,30.00
2018-07-15T11:42:53.700Z,29.86
2018-07-15T11:45:23.323Z,29.95
2018-07-15T11:47:52.256Z,30.30
2018-07-15T11:50:21.354Z,30.28
2018-07-15T11:52:50.699Z,30.82
2018-07-15T11:55:19.375Z,31.09
2018-07-15T11:57:49.107Z,30.89
2018-07-15T12:00:18.719Z,31.02
2018-07-15T12:02:47.694Z,31.29
2018-07-15T12:05:16.694Z,31.57
2018-07-15T12:07:46.107Z,31.66
2018-07-15T12:10:15.379Z,31.31
2018-07-15T12:12:44.363Z,31.02
2018-07-15T12:15:14.124Z,30.86
2018-07-15T12:17:43.179Z,30.83
2018-07-15T12:20:12.485Z,30.43
2018-07-15T12:22:41.771Z,30.69
2018-07-15T12:25:10.676Z,30.86
2018-07-15T12:27:39.592Z,30.25
2018-07-15T12:30:09.253Z,30.19
2018-07-15T12:32:38.360Z,30.44
2018-07-15T12:35:07.319Z,30.86
2018-07-15T12:37:36.652Z,31.35
2018-07-15T12:40:05.330Z,31.57
2018-07-15T12:42:34.463Z,31.72
2018-07-15T12:45:04.103Z,31.81
2018-07-15T12:47:33.343Z,31.19
2018-07-15T12:50:02.907Z,30.58
2018-07-15T12:52:32.436Z,30.30
2018-07-15T12:55:01.863Z,30.58
2018-07-15T12:57:30.695Z,30.77
2018-07-15T13:00:00.695Z,31.16
2018-07-15T13:02:29.570Z,30.54
2018-07-15T13:04:58.959Z,29.79
2018-07-15T13:07:28.187Z,29.55
2018-07-15T13:09:56.914Z,29.45
2018-07-15T13:12:25.590Z,29.39
2018-07-15T13:14:54.302Z,29.22
2018-07-15T13:17:23.221Z,29.20
2018-07-15T13:19:52.875Z,29.13
2018-07-15T13:22:22.571Z,29.20
2018-07-15T13:24:51.742Z,28.98
2018-07-15T13:27:21.163Z,29.00
2018-07-15T13:29:50.698Z,28.74
2018-07-15T13:32:20.363Z,28.55
2018-07-15T13:34:49.043Z,27.98
2018-07-15T13:37:18.435Z,27.53
2018-07-15T13:39:47.829Z,26.96
2018-07-15T13:42:17.220Z,26.81
2018-07-15T13:44:46.760Z,26.23
2018-07-15T13:47:15.890Z,25.77
2018-07-15T13:49:44.955Z,25.27
2018-07-15T13:52:14.062Z,25.23
2018-07-15T13:54:42.860Z,25.30
2018-07-15T13:57:11.858Z,25.38
2018-07-15T13:59:41.147Z,25.57
2018-07-15T14:02:10.167Z,25.61
2018-07-15T14:04:39.164Z,25.41
2018-07-15T14:07:08.800Z,25.42
2018-07-15T14:09:37.771Z,25.44
2018-07-15T14:12:06.651Z,25.56
2018-07-15T14:14:35.323Z,25.66
2018-07-15T14:17:04.298Z,25.91
2018-07-15T14:19:33.331Z,26.01
2018-07-15T14:22:02.747Z,26.25
2018-07-15T14:24:32.014Z,26.31
2018-07-15T14:27:00.911Z,26.29
2018-07-15T14:29:30.170Z,26.49
2018-07-15T14:31:59.495Z,26.54
2018-07-15T14:34:28.544Z,26.58
2018-07-15T14:36:57.900Z,26.56
2018-07-15T14:39:33.979Z,26.89
2018-07-15T14:42:03.719Z,27.05
2018-07-15T14:44:32.966Z,27.33
2018-07-15T14:47:01.788Z,27.20
2018-07-15T14:49:31.112Z,27.41
2018-07-15T14:52:00.319Z,27.60
2018-07-15T14:54:29.728Z,27.62
2018-07-15T14:56:59.835Z,27.61
2018-07-15T14:59:28.953Z,27.74
2018-07-15T15:01:58.048Z,27.88
2018-07-15T15:04:27.667Z,28.20
2018-07-15T15:06:56.609Z,28.43
2018-07-15T15:09:25.598Z,28.67
2018-07-15T15:11:55.143Z,28.65
2018-07-15T15:14:24.063Z,28.46
2018-07-15T15:16:52.935Z,28.50
2018-07-15T15:19:22.425Z,28.52
2018-07-15T15:21:51.615Z,28.65
2018-07-15T15:24:20.490Z,27.62
2018-07-15T15:26:49.834Z,26.62
2018-07-15T15:29:18.802Z,26.07
2018-07-15T15:31:47.795Z,25.79
2018-07-15T15:34:17.080Z,25.66
2018-07-15T15:36:45.968Z,25.31
2018-07-15T15:39:15.175Z,25.27
2018-07-15T15:41:44.407Z,25.27
2018-07-15T15:44:13.492Z,25.27
2018-07-15T15:46:42.668Z,25.29
2018-07-15T15:49:12.428Z,25.37
2018-07-15T15:51:41.389Z,25.35
2018-07-15T15:54:10.550Z,25.40
2018-07-15T15:56:39.938Z,25.36
2018-07-15T15:59:08.870Z,25.34
2018-07-15T16:01:37.681Z,25.15
2018-07-15T16:04:06.622Z,25.05
2018-07-15T16:06:35.516Z,24.96
2018-07-15T16:09:05.548Z,24.90
2018-07-15T16:11:34.790Z,25.00
2018-07-15T16:14:04.080Z,25.21
2018-07-15T16:16:33.212Z,25.30
2018-07-15T16:19:02.289Z,25.25
2018-07-15T16:21:31.360Z,25.45
2018-07-15T16:24:00.562Z,25.53
2018-07-15T16:26:29.803Z,25.56
2018-07-15T16:28:59.031Z,25.70
2018-07-15T16:31:27.956Z,25.75
2018-07-15T16:33:57.287Z,25.66
2018-07-15T16:36:26.234Z,25.55
2018-07-15T16:38:54.891Z,25.50
2018-07-15T16:41:24.297Z,25.50
2018-07-15T16:43:53.432Z,25.59
2018-07-15T16:46:22.832Z,25.73
2018-07-15T16:48:51.859Z,25.87
2018-07-15T16:51:22.142Z,26.08
2018-07-15T16:53:51.606Z,26.16
2018-07-15T16:56:20.697Z,26.29
2018-07-15T16:58:49.610Z,26.25
2018-07-15T17:01:19.085Z,26.17
2018-07-15T17:03:48.184Z,26.14
2018-07-15T17:06:17.231Z,25.98
2018-07-15T17:08:46.154Z,25.85
2018-07-15T17:11:15.576Z,25.71
2018-07-15T17:13:44.711Z,25.47
2018-07-15T17:16:13.747Z,25.16
2018-07-15T17:18:43.068Z,25.01
2018-07-15T17:21:12.136Z,24.87
2018-07-15T17:23:41.308Z,24.55
2018-07-15T17:26:10.843Z,24.41
2018-07-15T17:28:39.890Z,24.26
2018-07-15T17:31:08.857Z,24.11
2018-07-15T17:33:38.248Z,24.04
2018-07-15T17:36:07.119Z,23.98
2018-07-15T17:38:36.132Z,23.95
2018-07-15T17:41:05.637Z,23.95
2018-07-15T17:43:34.431Z,23.94
2018-07-15T17:46:03.370Z,23.89
2018-07-15T17:48:32.420Z,23.88
2018-07-15T17:51:01.598Z,23.84
2018-07-15T17:53:30.559Z,23.75
2018-07-15T17:55:59.803Z,23.67
2018-07-15T17:58:29.205Z,23.59
2018-07-15T18:00:58.482Z,23.51
2018-07-15T18:03:27.623Z,23.45
2018-07-15T18:05:56.666Z,23.43
2018-07-15T18:08:25.482Z,23.28
2018-07-15T18:10:54.553Z,23.20
2018-07-15T18:13:23.794Z,23.19
2018-07-15T18:15:52.659Z,23.07
2018-07-15T18:18:21.991Z,23.13
2018-07-15T18:20:51.485Z,23.19
2018-07-15T18:23:21.392Z,23.15
2018-07-15T18:25:50.138Z,23.09
2018-07-15T18:28:19.172Z,22.98
2018-07-15T18:30:48.403Z,22.93
2018-07-15T18:33:17.590Z,22.85
2018-07-15T18:35:47.186Z,22.80
2018-07-15T18:38:16.023Z,22.78
2018-07-15T18:40:45.404Z,22.75
2018-07-15T18:43:14.165Z,22.82
2018-07-15T18:45:43.127Z,22.73
2018-07-15T18:48:12.396Z,22.65
2018-07-15T18:50:41.659Z,22.64
2018-07-15T18:53:10.338Z,22.61
2018-07-15T18:55:39.611Z,22.55
2018-07-15T18:58:08.542Z,22.53
2018-07-15T19:00:38.202Z,22.49
2018-07-15T19:03:07.295Z,22.49
2018-07-15T19:05:36.403Z,22.47
2018-07-15T19:08:05.446Z,22.44
2018-07-15T19:10:34.839Z,22.43
2018-07-15T19:13:04.019Z,22.41
2018-07-15T19:15:33.215Z,22.42
2018-07-15T19:18:02.858Z,22.39
2018-07-15T19:20:31.600Z,22.36
2018-07-15T19:23:00.814Z,22.37
2018-07-15T19:25:30.374Z,22.36
2018-07-15T19:27:59.951Z,22.41
2018-07-15T19:30:28.850Z,22.46
2018-07-15T19:32:57.877Z,22.49
2018-07-15T19:35:26.809Z,22.55
2018-07-15T19:37:56.143Z,22.53
2018-07-15T19:40:25.765Z,22.56
2018-07-15T19:42:54.845Z,22.65
2018-07-15T19:45:24.258Z,22.62
2018-07-15T19:47:53.560Z,22.56
2018-07-15T19:50:22.337Z,22.55
2018-07-15T19:52:51.644Z,22.55
2018-07-15T19:55:20.715Z,22.56
2018-07-15T19:57:49.743Z,22.54
2018-07-15T20:00:18.646Z,22.52
2018-07-15T20:02:47.855Z,22.55
2018-07-15T20:05:17.139Z,22.48
2018-07-15T20:07:45.966Z,22.40
2018-07-15T20:10:14.834Z,22.33
2018-07-15T20:12:43.807Z,22.30
2018-07-15T20:15:12.999Z,22.28
2018-07-15T20:17:42.517Z,22.31
2018-07-15T20:20:12.275Z,22.33
2018-07-15T20:22:41.948Z,22.28
2018-07-15T20:25:11.262Z,22.18
2018-07-15T20:27:40.191Z,22.23
2018-07-15T20:30:08.903Z,22.23
2018-07-15T20:32:38.146Z,22.33
2018-07-15T20:35:07.366Z,22.29
2018-07-15T20:37:36.308Z,22.31
2018-07-15T20:40:06.130Z,22.34
2018-07-15T20:42:38.808Z,22.39
2018-07-15T20:45:07.898Z,22.31
2018-07-15T20:47:37.523Z,22.37
2018-07-15T20:50:06.379Z,22.30
2018-07-15T20:52:36.251Z,22.34
2018-07-15T20:55:05.110Z,22.27
2018-07-15T20:57:34.080Z,22.31
2018-07-15T21:00:03.330Z,22.30
2018-07-15T21:02:32.403Z,22.32
2018-07-15T21:05:01.182Z,22.33
2018-07-15T21:07:30.385Z,22.34
2018-07-15T21:09:59.805Z,22.43
2018-07-15T21:12:28.681Z,22.31
2018-07-15T21:14:59.037Z,22.32
2018-07-15T21:17:28.095Z,22.40
2018-07-15T21:19:56.898Z,22.41
2018-07-15T21:22:26.022Z,22.41
2018-07-15T21:24:55.195Z,22.41
2018-07-15T21:27:24.210Z,22.40
2018-07-15T21:29:54.097Z,22.41
2018-07-15T21:32:23.166Z,22.47
2018-07-15T21:34:52.495Z,22.47
2018-07-15T21:37:21.707Z,22.43
2018-07-15T21:39:50.798Z,22.44
2018-07-15T21:42:20.725Z,22.39
2018-07-15T21:44:50.039Z,22.44
2018-07-15T21:47:18.904Z,22.45
2018-07-15T21:49:47.912Z,22.51
2018-07-15T21:52:17.019Z,22.43
2018-07-15T21:54:45.968Z,22.36
2018-07-15T21:57:15.069Z,22.35
2018-07-15T21:59:44.423Z,22.36
2018-07-15T22:02:14.797Z,22.33
2018-07-15T22:04:46.604Z,22.21
2018-07-15T22:07:26.224Z,22.21
2018-07-15T22:10:11.043Z,22.19
2018-07-15T22:12:40.671Z,22.19
2018-07-15T22:15:09.913Z,22.14
2018-07-15T22:17:39.010Z,22.05
2018-07-15T22:20:07.815Z,22.13
2018-07-15T22:22:36.685Z,22.06
2018-07-15T22:25:06.770Z,22.02
2018-07-15T22:27:35.905Z,22.02
2018-07-15T22:30:06.310Z,22.02
2018-07-15T22:32:35.255Z,22.01
2018-07-15T22:35:05.235Z,21.92
2018-07-15T22:37:34.046Z,21.89
2018-07-15T22:40:02.915Z,21.91
2018-07-15T22:42:31.926Z,21.83
2018-07-15T22:45:01.115Z,21.78
2018-07-15T22:47:30.647Z,21.75
2018-07-15T22:49:59.599Z,21.76
2018-07-15T22:52:28.244Z,21.70
2018-07-15T22:54:58.443Z,21.58
2018-07-15T22:57:27.299Z,21.52
2018-07-15T22:59:56.272Z,21.43
2018-07-15T23:02:25.622Z,21.43
2018-07-15T23:06:02.777Z,21.38
2018-07-15T23:08:32.879Z,21.32
2018-07-15T23:11:01.708Z,21.29
2018-07-15T23:13:30.615Z,21.25
2018-07-15T23:16:10.143Z,21.24
2018-07-15T23:18:39.042Z,21.24
2018-07-15T23:21:08.231Z,21.26
2018-07-15T23:23:37.463Z,21.25
2018-07-15T23:26:06.529Z,21.30
2018-07-15T23:28:35.540Z,21.31
2018-07-15T23:31:05.392Z,21.34
2018-07-15T23:33:34.743Z,21.33
2018-07-15T23:36:03.526Z,21.30
2018-07-15T23:38:32.571Z,21.30
2018-07-15T23:41:01.629Z,21.34
2018-07-15T23:43:31.511Z,21.32
2018-07-15T23:46:00.664Z,21.32
2018-07-15T23:48:29.627Z,21.21
2018-07-15T23:50:58.539Z,21.24
2018-07-15T23:53:28.582Z,21.18
2018-07-15T23:56:05.332Z,21.15
2018-07-15T23:58:34.139Z,21.02
